Danciger, Texas
Current Conditions -  °F | °C
As of 4:15 PM on Sunday 23 Nov 2014 (Local Time) from KARM Reporting Station
Clear Clear  
Wind Chill: 78°   Ceiling: Unl
Heat Index: 79°   Visibility: 10mi
Dew Point: 54°   Wind: 13mph
Humidity: 44%   Direction: 200°SSW
Pressure: 29.58"   Gusts: NA
Location:  29.17°N, 95.82°W
Report Text: KARM 232215Z AUTO 20011KT 10SM CLR 26/12 A2958 RMK AO2 T02550124
Loading
Personal Weather Stations






























Interactive Weather Map New forecast layout! Learn more

10-Day Weather Forecast

Advertisements
Track Severe Weather on mobile